BAW22G EGKK-ELLX
Flight info
| Callsign | BAW22G |
|---|---|
| Flight time | 0h 49m |
| Altitude | 35000 |
| Route | ODVIK Y311 DVR UL9 KONAN UL607 REMBA |
| Aircraft | A20N/M-SDE2E3FGHIRWXY/LB1 |
Departure
| Time | 2026-05-04 14:11 |
|---|---|
| Airport | London Gatwick Airport (EGKK) |
Arrival
| Time | 2026-05-04 15:01 |
|---|---|
| Airport | Luxembourg-Findel International Airport (ELLX) |
| Time | Latitude | Longitude | Altitude | Speed | Heading |
|---|---|---|---|---|---|
| 2026-05-04 13:46 | 51.15654 | -0.17793 | 215 ft | 0 kts | 167° |
| 2026-05-04 13:59 | 51.15668 | -0.17798 | 215 ft | 2 kts | 167° |
| 2026-05-04 14:00 | 51.15684 | -0.17804 | 208 ft | 2 kts | 167° |
| 2026-05-04 14:00 | 51.15716 | -0.17809 | 204 ft | 2 kts | 221° |
| 2026-05-04 14:00 | 51.15724 | -0.17787 | 212 ft | 2 kts | 258° |
| 2026-05-04 14:01 | 51.15727 | -0.17766 | 204 ft | 1 kts | 257° |
| 2026-05-04 14:04 | 51.15727 | -0.17769 | 204 ft | 2 kts | 257° |
| 2026-05-04 14:04 | 51.15715 | -0.17848 | 204 ft | 9 kts | 257° |
| 2026-05-04 14:04 | 51.15698 | -0.17967 | 208 ft | 13 kts | 257° |
| 2026-05-04 14:05 | 51.15649 | -0.18318 | 210 ft | 19 kts | 259° |
| 2026-05-04 14:05 | 51.15621 | -0.18542 | 209 ft | 22 kts | 257° |
| 2026-05-04 14:05 | 51.15593 | -0.18739 | 207 ft | 13 kts | 257° |
| 2026-05-04 14:06 | 51.15564 | -0.18822 | 209 ft | 14 kts | 208° |
| 2026-05-04 14:06 | 51.15462 | -0.18803 | 204 ft | 17 kts | 167° |
| 2026-05-04 14:06 | 51.15339 | -0.18759 | 213 ft | 20 kts | 167° |
| 2026-05-04 14:06 | 51.15196 | -0.18710 | 214 ft | 21 kts | 168° |
| 2026-05-04 14:07 | 51.15118 | -0.18812 | 208 ft | 18 kts | 261° |
| 2026-05-04 14:07 | 51.15091 | -0.19027 | 205 ft | 21 kts | 258° |
| 2026-05-04 14:07 | 51.15059 | -0.19267 | 205 ft | 23 kts | 258° |
| 2026-05-04 14:07 | 51.15022 | -0.19532 | 208 ft | 25 kts | 257° |
| 2026-05-04 14:08 | 51.14981 | -0.19817 | 212 ft | 27 kts | 258° |
| 2026-05-04 14:08 | 51.14941 | -0.20125 | 214 ft | 29 kts | 258° |
| 2026-05-04 14:08 | 51.14896 | -0.20444 | 214 ft | 29 kts | 257° |
| 2026-05-04 14:08 | 51.14848 | -0.20766 | 206 ft | 31 kts | 257° |
| 2026-05-04 14:09 | 51.14742 | -0.21409 | 208 ft | 10 kts | 225° |
| 2026-05-04 14:09 | 51.14710 | -0.21408 | 210 ft | 16 kts | 161° |
| 2026-05-04 14:10 | 51.14528 | -0.21121 | 211 ft | 23 kts | 78° |
| 2026-05-04 14:10 | 51.14562 | -0.20865 | 208 ft | 25 kts | 78° |
| 2026-05-04 14:10 | 51.14623 | -0.20414 | 212 ft | 73 kts | 77° |
| 2026-05-04 14:10 | 51.14777 | -0.19286 | 210 ft | 132 kts | 78° |
| 2026-05-04 14:11 | 51.14986 | -0.17740 | 643 ft | 136 kts | 78° |
| 2026-05-04 14:11 | 51.15403 | -0.14802 | 1681 ft | 144 kts | 76° |
| 2026-05-04 14:11 | 51.15652 | -0.13226 | 2198 ft | 150 kts | 75° |
| 2026-05-04 14:12 | 51.15923 | -0.11547 | 2573 ft | 166 kts | 75° |
| 2026-05-04 14:12 | 51.16228 | -0.09693 | 3051 ft | 180 kts | 75° |
| 2026-05-04 14:12 | 51.16926 | -0.05594 | 4575 ft | 192 kts | 74° |
| 2026-05-04 14:13 | 51.17286 | -0.03559 | 5554 ft | 196 kts | 74° |
| 2026-05-04 14:13 | 51.17443 | -0.01246 | 6060 ft | 224 kts | 95° |
| 2026-05-04 14:13 | 51.17188 | 0.01327 | 6709 ft | 246 kts | 100° |
| 2026-05-04 14:13 | 51.16924 | 0.04144 | 7368 ft | 268 kts | 97° |
| 2026-05-04 14:14 | 51.16747 | 0.07199 | 8180 ft | 281 kts | 94° |
| 2026-05-04 14:14 | 51.16574 | 0.13511 | 10254 ft | 289 kts | 91° |
| 2026-05-04 14:14 | 51.16521 | 0.16738 | 11251 ft | 294 kts | 91° |
| 2026-05-04 14:15 | 51.16542 | 0.23307 | 13135 ft | 303 kts | 89° |
| 2026-05-04 14:15 | 51.16580 | 0.30112 | 14939 ft | 311 kts | 90° |
| 2026-05-04 14:16 | 51.16592 | 0.37105 | 16633 ft | 320 kts | 90° |
| 2026-05-04 14:16 | 51.16592 | 0.40677 | 17444 ft | 324 kts | 90° |
| 2026-05-04 14:17 | 51.16587 | 0.47929 | 18994 ft | 332 kts | 90° |
| 2026-05-04 14:17 | 51.16584 | 0.51659 | 19527 ft | 345 kts | 90° |
| 2026-05-04 14:17 | 51.16580 | 0.59716 | 19921 ft | 385 kts | 90° |
| 2026-05-04 14:18 | 51.16576 | 0.64077 | 20465 ft | 392 kts | 90° |
| 2026-05-04 14:18 | 51.16563 | 0.72806 | 21810 ft | 400 kts | 90° |
| 2026-05-04 14:19 | 51.16542 | 0.81759 | 23069 ft | 407 kts | 90° |
| 2026-05-04 14:19 | 51.16528 | 0.86294 | 23668 ft | 411 kts | 90° |
| 2026-05-04 14:19 | 51.16513 | 0.90878 | 24260 ft | 415 kts | 90° |
| 2026-05-04 14:19 | 51.16495 | 0.95499 | 24834 ft | 419 kts | 90° |
| 2026-05-04 14:20 | 51.16476 | 1.00074 | 25344 ft | 423 kts | 90° |
| 2026-05-04 14:20 | 51.16455 | 1.04776 | 25880 ft | 426 kts | 90° |
| 2026-05-04 14:20 | 51.16432 | 1.09519 | 26400 ft | 430 kts | 90° |
| 2026-05-04 14:21 | 51.16378 | 1.19126 | 27382 ft | 436 kts | 90° |
| 2026-05-04 14:21 | 51.16348 | 1.23974 | 27834 ft | 439 kts | 90° |
| 2026-05-04 14:21 | 51.16316 | 1.28864 | 28276 ft | 442 kts | 90° |
| 2026-05-04 14:21 | 51.16282 | 1.33793 | 28695 ft | 445 kts | 90° |
| 2026-05-04 14:22 | 51.16136 | 1.38654 | 29093 ft | 448 kts | 95° |
| 2026-05-04 14:22 | 51.15890 | 1.43612 | 29495 ft | 450 kts | 94° |
| 2026-05-04 14:22 | 51.15653 | 1.48614 | 29871 ft | 453 kts | 94° |
| 2026-05-04 14:22 | 51.15414 | 1.53636 | 30241 ft | 455 kts | 94° |
| 2026-05-04 14:23 | 51.14924 | 1.63761 | 30990 ft | 461 kts | 94° |
| 2026-05-04 14:23 | 51.14672 | 1.68853 | 31405 ft | 462 kts | 94° |
| 2026-05-04 14:23 | 51.14417 | 1.73962 | 31880 ft | 461 kts | 95° |
| 2026-05-04 14:24 | 51.14161 | 1.79043 | 32352 ft | 460 kts | 95° |
| 2026-05-04 14:24 | 51.13903 | 1.84111 | 32813 ft | 459 kts | 95° |
| 2026-05-04 14:24 | 51.13643 | 1.89168 | 33253 ft | 458 kts | 95° |
| 2026-05-04 14:24 | 51.13385 | 1.94155 | 33682 ft | 457 kts | 95° |
| 2026-05-04 14:25 | 51.13123 | 1.99183 | 34086 ft | 456 kts | 95° |
| 2026-05-04 14:25 | 51.12591 | 2.09236 | 34852 ft | 455 kts | 95° |
| 2026-05-04 14:25 | 51.12323 | 2.14246 | 34983 ft | 453 kts | 95° |
| 2026-05-04 14:26 | 51.11782 | 2.24223 | 34997 ft | 452 kts | 95° |
| 2026-05-04 14:26 | 51.11233 | 2.34195 | 35004 ft | 452 kts | 95° |
| 2026-05-04 14:27 | 51.10675 | 2.44170 | 34997 ft | 452 kts | 95° |
| 2026-05-04 14:27 | 51.10113 | 2.54074 | 34999 ft | 452 kts | 95° |
| 2026-05-04 14:28 | 51.09458 | 2.64022 | 34996 ft | 452 kts | 99° |
| 2026-05-04 14:28 | 51.07928 | 2.73726 | 35004 ft | 452 kts | 106° |
| 2026-05-04 14:29 | 51.04435 | 2.92942 | 35000 ft | 452 kts | 106° |
| 2026-05-04 14:30 | 51.02685 | 3.02504 | 35000 ft | 452 kts | 106° |
| 2026-05-04 14:31 | 51.00035 | 3.16885 | 34999 ft | 452 kts | 106° |
| 2026-05-04 14:32 | 50.96486 | 3.35970 | 34996 ft | 452 kts | 107° |
| 2026-05-04 14:32 | 50.94691 | 3.45543 | 34997 ft | 452 kts | 107° |
| 2026-05-04 14:33 | 50.92887 | 3.55122 | 34999 ft | 452 kts | 107° |
| 2026-05-04 14:33 | 50.91095 | 3.64590 | 35002 ft | 452 kts | 107° |
| 2026-05-04 14:34 | 50.89264 | 3.74124 | 34998 ft | 452 kts | 107° |
| 2026-05-04 14:34 | 50.87419 | 3.83652 | 34993 ft | 452 kts | 107° |
| 2026-05-04 14:35 | 50.85568 | 3.93174 | 35002 ft | 452 kts | 107° |
| 2026-05-04 14:35 | 50.83719 | 4.02650 | 34995 ft | 452 kts | 107° |
| 2026-05-04 14:36 | 50.81853 | 4.12162 | 35001 ft | 452 kts | 107° |
| 2026-05-04 14:36 | 50.79999 | 4.21567 | 35003 ft | 452 kts | 107° |
| 2026-05-04 14:37 | 50.78119 | 4.31054 | 34998 ft | 452 kts | 107° |
| 2026-05-04 14:37 | 50.76250 | 4.40445 | 34648 ft | 449 kts | 107° |
| 2026-05-04 14:37 | 50.75311 | 4.45142 | 34028 ft | 449 kts | 108° |
| 2026-05-04 14:38 | 50.74368 | 4.49851 | 33282 ft | 449 kts | 108° |
| 2026-05-04 14:38 | 50.73422 | 4.54565 | 32462 ft | 451 kts | 108° |
| 2026-05-04 14:38 | 50.72470 | 4.59298 | 31623 ft | 453 kts | 108° |
| 2026-05-04 14:38 | 50.71525 | 4.64046 | 30772 ft | 454 kts | 107° |
| 2026-05-04 14:39 | 50.70601 | 4.68821 | 29973 ft | 454 kts | 107° |
| 2026-05-04 14:39 | 50.69688 | 4.73569 | 29332 ft | 449 kts | 107° |
| 2026-05-04 14:39 | 50.68784 | 4.78259 | 28696 ft | 445 kts | 107° |
| 2026-05-04 14:40 | 50.66905 | 4.87389 | 27431 ft | 436 kts | 114° |
| 2026-05-04 14:40 | 50.65494 | 4.91586 | 26796 ft | 432 kts | 123° |
| 2026-05-04 14:40 | 50.63676 | 4.95324 | 26160 ft | 427 kts | 133° |
| 2026-05-04 14:40 | 50.61578 | 4.98621 | 25534 ft | 423 kts | 136° |
| 2026-05-04 14:41 | 50.59482 | 5.01851 | 24916 ft | 419 kts | 136° |
| 2026-05-04 14:41 | 50.57413 | 5.05052 | 24287 ft | 415 kts | 135° |
| 2026-05-04 14:41 | 50.53330 | 5.11365 | 23071 ft | 408 kts | 136° |
| 2026-05-04 14:42 | 50.50544 | 5.15663 | 22238 ft | 402 kts | 136° |
| 2026-05-04 14:42 | 50.48554 | 5.18728 | 21626 ft | 399 kts | 136° |
| 2026-05-04 14:42 | 50.46577 | 5.21768 | 20999 ft | 396 kts | 136° |
| 2026-05-04 14:43 | 50.44657 | 5.24717 | 20421 ft | 392 kts | 136° |
| 2026-05-04 14:43 | 50.42731 | 5.27671 | 19828 ft | 388 kts | 136° |
| 2026-05-04 14:43 | 50.40806 | 5.30621 | 19227 ft | 385 kts | 136° |
| 2026-05-04 14:43 | 50.38897 | 5.33542 | 18630 ft | 382 kts | 136° |
| 2026-05-04 14:44 | 50.37006 | 5.36434 | 18039 ft | 378 kts | 136° |
| 2026-05-04 14:44 | 50.35130 | 5.39297 | 17456 ft | 375 kts | 136° |
| 2026-05-04 14:44 | 50.33269 | 5.42135 | 16897 ft | 371 kts | 136° |
| 2026-05-04 14:44 | 50.31427 | 5.44941 | 16314 ft | 368 kts | 136° |
| 2026-05-04 14:45 | 50.29601 | 5.47718 | 15744 ft | 365 kts | 136° |
| 2026-05-04 14:45 | 50.27784 | 5.50481 | 15167 ft | 362 kts | 136° |
| 2026-05-04 14:45 | 50.25980 | 5.53219 | 14596 ft | 360 kts | 136° |
| 2026-05-04 14:45 | 50.24193 | 5.55928 | 14030 ft | 357 kts | 136° |
| 2026-05-04 14:46 | 50.22413 | 5.58625 | 13447 ft | 354 kts | 136° |
| 2026-05-04 14:46 | 50.20655 | 5.61284 | 12912 ft | 351 kts | 136° |
| 2026-05-04 14:46 | 50.18903 | 5.63933 | 12357 ft | 349 kts | 136° |
| 2026-05-04 14:46 | 50.17177 | 5.66539 | 12076 ft | 344 kts | 136° |
| 2026-05-04 14:47 | 50.15445 | 5.69151 | 11941 ft | 346 kts | 136° |
| 2026-05-04 14:47 | 50.13745 | 5.71714 | 11657 ft | 344 kts | 136° |
| 2026-05-04 14:47 | 50.12034 | 5.74289 | 11229 ft | 340 kts | 136° |
| 2026-05-04 14:47 | 50.10306 | 5.76886 | 11044 ft | 341 kts | 136° |
| 2026-05-04 14:48 | 50.08618 | 5.79423 | 11002 ft | 342 kts | 136° |
| 2026-05-04 14:48 | 50.06903 | 5.81998 | 10861 ft | 343 kts | 136° |
| 2026-05-04 14:48 | 50.05188 | 5.84570 | 10613 ft | 341 kts | 136° |
| 2026-05-04 14:48 | 50.03488 | 5.87118 | 10417 ft | 336 kts | 136° |
| 2026-05-04 14:49 | 50.01833 | 5.89594 | 10296 ft | 323 kts | 136° |
| 2026-05-04 14:49 | 50.00246 | 5.91968 | 10181 ft | 310 kts | 136° |
| 2026-05-04 14:49 | 49.98725 | 5.94240 | 10023 ft | 298 kts | 136° |
| 2026-05-04 14:49 | 49.97238 | 5.96460 | 9690 ft | 292 kts | 136° |
| 2026-05-04 14:50 | 49.95794 | 5.98613 | 9553 ft | 290 kts | 136° |
| 2026-05-04 14:50 | 49.94830 | 6.00049 | 9467 ft | 292 kts | 136° |
| 2026-05-04 14:50 | 49.93370 | 6.02221 | 9342 ft | 289 kts | 136° |
| 2026-05-04 14:50 | 49.91446 | 6.05082 | 9176 ft | 288 kts | 136° |
| 2026-05-04 14:51 | 49.89998 | 6.07234 | 9052 ft | 288 kts | 136° |
| 2026-05-04 14:51 | 49.89039 | 6.08657 | 8938 ft | 286 kts | 136° |
| 2026-05-04 14:51 | 49.87514 | 6.10602 | 8602 ft | 284 kts | 152° |
| 2026-05-04 14:51 | 49.85641 | 6.11437 | 8204 ft | 281 kts | 178° |
| 2026-05-04 14:52 | 49.83739 | 6.10904 | 7766 ft | 279 kts | 205° |
| 2026-05-04 14:52 | 49.82049 | 6.09423 | 7377 ft | 278 kts | 212° |
| 2026-05-04 14:52 | 49.80410 | 6.07862 | 6981 ft | 276 kts | 212° |
| 2026-05-04 14:52 | 49.78778 | 6.06313 | 6578 ft | 275 kts | 212° |
| 2026-05-04 14:53 | 49.77128 | 6.04774 | 6035 ft | 279 kts | 211° |
| 2026-05-04 14:53 | 49.75447 | 6.03230 | 5483 ft | 283 kts | 211° |
| 2026-05-04 14:53 | 49.73744 | 6.01675 | 4932 ft | 285 kts | 211° |
| 2026-05-04 14:53 | 49.72030 | 6.00115 | 4391 ft | 288 kts | 211° |
| 2026-05-04 14:54 | 49.70310 | 5.98558 | 4098 ft | 281 kts | 211° |
| 2026-05-04 14:54 | 49.68666 | 5.97072 | 4000 ft | 265 kts | 211° |
| 2026-05-04 14:54 | 49.67113 | 5.95669 | 3891 ft | 257 kts | 211° |
| 2026-05-04 14:54 | 49.65566 | 5.94270 | 3445 ft | 259 kts | 211° |
| 2026-05-04 14:55 | 49.64001 | 5.92851 | 3123 ft | 261 kts | 211° |
| 2026-05-04 14:55 | 49.62439 | 5.91438 | 3019 ft | 261 kts | 210° |
| 2026-05-04 14:55 | 49.60722 | 5.90584 | 3007 ft | 262 kts | 183° |
| 2026-05-04 14:55 | 49.58945 | 5.91084 | 3007 ft | 263 kts | 155° |
| 2026-05-04 14:56 | 49.57364 | 5.92503 | 3007 ft | 263 kts | 146° |
| 2026-05-04 14:56 | 49.55891 | 5.94181 | 3001 ft | 263 kts | 137° |
| 2026-05-04 14:56 | 49.54962 | 5.96523 | 3005 ft | 264 kts | 103° |
| 2026-05-04 14:56 | 49.54986 | 5.99310 | 3009 ft | 259 kts | 76° |
| 2026-05-04 14:57 | 49.55580 | 6.01847 | 3005 ft | 238 kts | 64° |
| 2026-05-04 14:57 | 49.56293 | 6.03981 | 3000 ft | 215 kts | 60° |
| 2026-05-04 14:57 | 49.56982 | 6.05865 | 3028 ft | 184 kts | 60° |
| 2026-05-04 14:57 | 49.57575 | 6.07462 | 2844 ft | 167 kts | 59° |
| 2026-05-04 14:58 | 49.58115 | 6.08920 | 2643 ft | 148 kts | 60° |
| 2026-05-04 14:58 | 49.58607 | 6.10248 | 2454 ft | 135 kts | 59° |
| 2026-05-04 14:58 | 49.59060 | 6.11476 | 2239 ft | 134 kts | 59° |
| 2026-05-04 14:58 | 49.59517 | 6.12719 | 2090 ft | 133 kts | 60° |
| 2026-05-04 14:59 | 49.59969 | 6.13961 | 1892 ft | 132 kts | 59° |
| 2026-05-04 14:59 | 49.60427 | 6.15183 | 1747 ft | 132 kts | 60° |
| 2026-05-04 14:59 | 49.61344 | 6.17619 | 1371 ft | 130 kts | 59° |
| 2026-05-04 15:00 | 49.61793 | 6.18834 | 1247 ft | 130 kts | 60° |
| 2026-05-04 15:00 | 49.62212 | 6.20000 | 1214 ft | 115 kts | 59° |
| 2026-05-04 15:00 | 49.62546 | 6.20877 | 1214 ft | 59 kts | 59° |
| 2026-05-04 15:01 | 49.62852 | 6.21281 | 1200 ft | 16 kts | 30° |
| 2026-05-04 15:01 | 49.62865 | 6.21293 | 1200 ft | 0 kts | 30° |
| 2026-05-04 15:01 | 49.62884 | 6.21310 | 1199 ft | 9 kts | 30° |
| 2026-05-04 15:02 | 49.62969 | 6.21386 | 1197 ft | 18 kts | 31° |
| 2026-05-04 15:02 | 49.63048 | 6.21552 | 1197 ft | 21 kts | 64° |
| 2026-05-04 15:02 | 49.63115 | 6.21765 | 1197 ft | 23 kts | 64° |
| 2026-05-04 15:02 | 49.63188 | 6.22000 | 1198 ft | 25 kts | 64° |
| 2026-05-04 15:03 | 49.63270 | 6.22113 | 1197 ft | 15 kts | 344° |
| 2026-05-04 15:03 | 49.63348 | 6.21992 | 1195 ft | 18 kts | 303° |
| 2026-05-04 15:03 | 49.63342 | 6.21850 | 1195 ft | 0 kts | 257° |
| 2026-05-04 15:03 | 49.63360 | 6.21807 | 1195 ft | 7 kts | 336° |
| 2026-05-04 15:04 | 49.63392 | 6.21781 | 1195 ft | 0 kts | 331° |